HBSDL LSZS-LSZR
Flight info
| Callsign | HBSDL |
|---|---|
| Flight time | 0h 37m |
| Altitude | 10000 |
| Route | PELAD DCT ARGAX DCT ELMUR DCT ROLSA |
| Aircraft | DHC6/L-SDFGR/C |
Departure
| Time | 2026-05-06 18:22 |
|---|---|
| Airport | Engadin Airport (LSZS) |
Arrival
| Time | 2026-05-06 19:00 |
|---|---|
| Airport | Sankt Gallen Altenrhein Airport (LSZR) |
| Time | Latitude | Longitude | Altitude | Speed | Heading |
|---|---|---|---|---|---|
| 2026-05-06 18:02 | 46.53057 | 9.87967 | 5602 ft | 0 kts | 300° |
| 2026-05-06 18:14 | 46.53061 | 9.87945 | 5607 ft | 8 kts | 249° |
| 2026-05-06 18:14 | 46.53004 | 9.87944 | 5607 ft | 9 kts | 131° |
| 2026-05-06 18:15 | 46.52991 | 9.87975 | 5604 ft | 1 kts | 115° |
| 2026-05-06 18:16 | 46.52989 | 9.87981 | 5602 ft | 2 kts | 114° |
| 2026-05-06 18:16 | 46.52978 | 9.88013 | 5603 ft | 5 kts | 118° |
| 2026-05-06 18:17 | 46.52956 | 9.88071 | 5603 ft | 8 kts | 119° |
| 2026-05-06 18:17 | 46.52949 | 9.88147 | 5599 ft | 10 kts | 55° |
| 2026-05-06 18:17 | 46.53027 | 9.88213 | 5604 ft | 15 kts | 27° |
| 2026-05-06 18:17 | 46.53159 | 9.88324 | 5602 ft | 26 kts | 30° |
| 2026-05-06 18:18 | 46.53266 | 9.88410 | 5609 ft | 16 kts | 28° |
| 2026-05-06 18:18 | 46.53363 | 9.88486 | 5605 ft | 16 kts | 30° |
| 2026-05-06 18:18 | 46.53460 | 9.88568 | 5608 ft | 15 kts | 30° |
| 2026-05-06 18:18 | 46.53552 | 9.88643 | 5606 ft | 15 kts | 29° |
| 2026-05-06 18:19 | 46.53646 | 9.88719 | 5603 ft | 15 kts | 30° |
| 2026-05-06 18:19 | 46.53732 | 9.88788 | 5608 ft | 14 kts | 29° |
| 2026-05-06 18:19 | 46.53816 | 9.88858 | 5602 ft | 14 kts | 32° |
| 2026-05-06 18:19 | 46.53894 | 9.88918 | 5604 ft | 12 kts | 29° |
| 2026-05-06 18:20 | 46.53962 | 9.88975 | 5609 ft | 12 kts | 30° |
| 2026-05-06 18:20 | 46.54039 | 9.89015 | 5606 ft | 12 kts | 329° |
| 2026-05-06 18:20 | 46.54059 | 9.88977 | 5608 ft | 0 kts | 301° |
| 2026-05-06 18:20 | 46.54059 | 9.88976 | 5608 ft | 0 kts | 301° |
| 2026-05-06 18:21 | 46.54072 | 9.88930 | 5612 ft | 10 kts | 266° |
| 2026-05-06 18:21 | 46.54046 | 9.88880 | 5609 ft | 0 kts | 207° |
| 2026-05-06 18:21 | 46.54026 | 9.88866 | 5611 ft | 20 kts | 205° |
| 2026-05-06 18:21 | 46.53719 | 9.88625 | 5605 ft | 79 kts | 209° |
| 2026-05-06 18:22 | 46.53139 | 9.88123 | 5794 ft | 105 kts | 209° |
| 2026-05-06 18:22 | 46.52507 | 9.87635 | 6340 ft | 102 kts | 199° |
| 2026-05-06 18:22 | 46.51788 | 9.87315 | 6546 ft | 123 kts | 208° |
| 2026-05-06 18:22 | 46.51105 | 9.86459 | 6859 ft | 120 kts | 211° |
| 2026-05-06 18:23 | 46.50508 | 9.85857 | 7373 ft | 104 kts | 215° |
| 2026-05-06 18:23 | 46.49877 | 9.85165 | 7573 ft | 113 kts | 213° |
| 2026-05-06 18:23 | 46.49273 | 9.84614 | 8117 ft | 104 kts | 205° |
| 2026-05-06 18:23 | 46.48574 | 9.84096 | 8408 ft | 114 kts | 202° |
| 2026-05-06 18:24 | 46.47842 | 9.83686 | 8779 ft | 115 kts | 204° |
| 2026-05-06 18:24 | 46.47181 | 9.82961 | 9030 ft | 123 kts | 217° |
| 2026-05-06 18:24 | 46.46536 | 9.82066 | 9212 ft | 134 kts | 223° |
| 2026-05-06 18:24 | 46.45862 | 9.81100 | 9503 ft | 137 kts | 219° |
| 2026-05-06 18:25 | 46.45159 | 9.80206 | 9865 ft | 135 kts | 220° |
| 2026-05-06 18:25 | 46.44425 | 9.79304 | 10075 ft | 141 kts | 217° |
| 2026-05-06 18:25 | 46.43682 | 9.78401 | 10331 ft | 142 kts | 219° |
| 2026-05-06 18:25 | 46.42922 | 9.77475 | 10591 ft | 142 kts | 219° |
| 2026-05-06 18:26 | 46.42180 | 9.76554 | 10842 ft | 139 kts | 218° |
| 2026-05-06 18:26 | 46.41461 | 9.75648 | 11108 ft | 135 kts | 219° |
| 2026-05-06 18:26 | 46.40772 | 9.74758 | 11368 ft | 130 kts | 219° |
| 2026-05-06 18:26 | 46.40232 | 9.73702 | 11553 ft | 131 kts | 236° |
| 2026-05-06 18:27 | 46.39793 | 9.72552 | 11770 ft | 131 kts | 237° |
| 2026-05-06 18:27 | 46.39686 | 9.71234 | 11870 ft | 148 kts | 287° |
| 2026-05-06 18:27 | 46.40456 | 9.70198 | 12058 ft | 155 kts | 322° |
| 2026-05-06 18:27 | 46.41380 | 9.69372 | 12305 ft | 157 kts | 320° |
| 2026-05-06 18:28 | 46.42312 | 9.68520 | 12552 ft | 158 kts | 320° |
| 2026-05-06 18:28 | 46.43227 | 9.67657 | 12800 ft | 156 kts | 321° |
| 2026-05-06 18:28 | 46.44124 | 9.66801 | 13047 ft | 154 kts | 320° |
| 2026-05-06 18:28 | 46.45028 | 9.65941 | 13290 ft | 156 kts | 320° |
| 2026-05-06 18:29 | 46.45940 | 9.65082 | 13530 ft | 155 kts | 320° |
| 2026-05-06 18:29 | 46.46842 | 9.64243 | 13758 ft | 154 kts | 320° |
| 2026-05-06 18:29 | 46.47745 | 9.63408 | 13946 ft | 153 kts | 320° |
| 2026-05-06 18:29 | 46.48671 | 9.62544 | 13991 ft | 164 kts | 321° |
| 2026-05-06 18:30 | 46.49810 | 9.62101 | 13991 ft | 183 kts | 4° |
| 2026-05-06 18:30 | 46.51003 | 9.62833 | 14022 ft | 190 kts | 29° |
| 2026-05-06 18:30 | 46.52170 | 9.63782 | 14033 ft | 195 kts | 28° |
| 2026-05-06 18:30 | 46.53354 | 9.64734 | 14040 ft | 199 kts | 28° |
| 2026-05-06 18:31 | 46.54586 | 9.65675 | 14039 ft | 200 kts | 19° |
| 2026-05-06 18:31 | 46.55933 | 9.65671 | 14016 ft | 194 kts | 333° |
| 2026-05-06 18:31 | 46.57017 | 9.64619 | 14025 ft | 187 kts | 319° |
| 2026-05-06 18:31 | 46.58157 | 9.63640 | 14022 ft | 192 kts | 327° |
| 2026-05-06 18:32 | 46.59366 | 9.62793 | 14021 ft | 194 kts | 329° |
| 2026-05-06 18:32 | 46.60586 | 9.61934 | 14015 ft | 195 kts | 328° |
| 2026-05-06 18:32 | 46.61803 | 9.61062 | 14014 ft | 195 kts | 328° |
| 2026-05-06 18:32 | 46.63024 | 9.60187 | 14010 ft | 196 kts | 328° |
| 2026-05-06 18:33 | 46.64249 | 9.59307 | 14005 ft | 197 kts | 328° |
| 2026-05-06 18:33 | 46.65473 | 9.58428 | 13999 ft | 195 kts | 328° |
| 2026-05-06 18:33 | 46.66684 | 9.57559 | 13995 ft | 193 kts | 328° |
| 2026-05-06 18:33 | 46.67895 | 9.56689 | 13989 ft | 194 kts | 328° |
| 2026-05-06 18:34 | 46.69105 | 9.55820 | 13989 ft | 193 kts | 328° |
| 2026-05-06 18:34 | 46.70306 | 9.54952 | 13984 ft | 192 kts | 328° |
| 2026-05-06 18:34 | 46.71504 | 9.54090 | 13985 ft | 192 kts | 328° |
| 2026-05-06 18:34 | 46.72702 | 9.53228 | 13978 ft | 192 kts | 328° |
| 2026-05-06 18:35 | 46.73492 | 9.52662 | 13978 ft | 191 kts | 329° |
| 2026-05-06 18:35 | 46.74706 | 9.51858 | 13974 ft | 192 kts | 330° |
| 2026-05-06 18:35 | 46.75907 | 9.51017 | 13971 ft | 192 kts | 326° |
| 2026-05-06 18:35 | 46.77082 | 9.50091 | 13965 ft | 192 kts | 327° |
| 2026-05-06 18:36 | 46.78269 | 9.49204 | 13970 ft | 191 kts | 328° |
| 2026-05-06 18:36 | 46.79464 | 9.48344 | 13968 ft | 192 kts | 328° |
| 2026-05-06 18:36 | 46.80661 | 9.47482 | 13972 ft | 191 kts | 328° |
| 2026-05-06 18:36 | 46.81849 | 9.46626 | 13971 ft | 190 kts | 328° |
| 2026-05-06 18:37 | 46.83027 | 9.45781 | 13964 ft | 187 kts | 328° |
| 2026-05-06 18:37 | 46.84198 | 9.44925 | 13962 ft | 189 kts | 328° |
| 2026-05-06 18:37 | 46.85380 | 9.44069 | 13969 ft | 190 kts | 328° |
| 2026-05-06 18:37 | 46.86569 | 9.43206 | 13970 ft | 192 kts | 328° |
| 2026-05-06 18:38 | 46.87753 | 9.42353 | 13974 ft | 192 kts | 328° |
| 2026-05-06 18:38 | 46.88946 | 9.41496 | 13970 ft | 190 kts | 329° |
| 2026-05-06 18:38 | 46.90118 | 9.40637 | 13969 ft | 189 kts | 329° |
| 2026-05-06 18:38 | 46.91288 | 9.39785 | 13974 ft | 187 kts | 329° |
| 2026-05-06 18:39 | 46.92455 | 9.38939 | 13970 ft | 188 kts | 329° |
| 2026-05-06 18:39 | 46.93628 | 9.38095 | 13972 ft | 187 kts | 330° |
| 2026-05-06 18:39 | 46.94794 | 9.37247 | 13972 ft | 187 kts | 329° |
| 2026-05-06 18:40 | 46.97135 | 9.35535 | 13977 ft | 189 kts | 329° |
| 2026-05-06 18:40 | 46.98312 | 9.34676 | 13976 ft | 188 kts | 329° |
| 2026-05-06 18:40 | 46.99479 | 9.33827 | 13980 ft | 187 kts | 329° |
| 2026-05-06 18:40 | 47.00649 | 9.32978 | 13985 ft | 188 kts | 329° |
| 2026-05-06 18:41 | 47.01823 | 9.32124 | 13962 ft | 188 kts | 329° |
| 2026-05-06 18:41 | 47.02987 | 9.31270 | 13972 ft | 186 kts | 329° |
| 2026-05-06 18:41 | 47.04146 | 9.30422 | 13969 ft | 186 kts | 329° |
| 2026-05-06 18:41 | 47.05108 | 9.29263 | 13958 ft | 177 kts | 298° |
| 2026-05-06 18:42 | 47.05596 | 9.27643 | 13961 ft | 173 kts | 286° |
| 2026-05-06 18:42 | 47.06046 | 9.25988 | 13966 ft | 176 kts | 288° |
| 2026-05-06 18:42 | 47.06501 | 9.24344 | 13984 ft | 177 kts | 287° |
| 2026-05-06 18:42 | 47.06961 | 9.22676 | 13996 ft | 175 kts | 287° |
| 2026-05-06 18:43 | 47.07419 | 9.21014 | 13983 ft | 176 kts | 287° |
| 2026-05-06 18:43 | 47.07877 | 9.19342 | 13989 ft | 177 kts | 287° |
| 2026-05-06 18:43 | 47.08341 | 9.17679 | 13986 ft | 176 kts | 288° |
| 2026-05-06 18:43 | 47.08805 | 9.16017 | 13983 ft | 176 kts | 287° |
| 2026-05-06 18:44 | 47.09251 | 9.14346 | 13990 ft | 175 kts | 287° |
| 2026-05-06 18:44 | 47.09703 | 9.12679 | 13984 ft | 175 kts | 287° |
| 2026-05-06 18:44 | 47.10153 | 9.11028 | 13989 ft | 175 kts | 287° |
| 2026-05-06 18:44 | 47.10624 | 9.09376 | 13994 ft | 176 kts | 288° |
| 2026-05-06 18:45 | 47.11080 | 9.07693 | 13998 ft | 179 kts | 287° |
| 2026-05-06 18:45 | 47.11533 | 9.05991 | 14007 ft | 179 kts | 288° |
| 2026-05-06 18:45 | 47.11993 | 9.04305 | 14000 ft | 176 kts | 288° |
| 2026-05-06 18:45 | 47.12447 | 9.02640 | 13995 ft | 175 kts | 288° |
| 2026-05-06 18:46 | 47.12890 | 9.00996 | 14000 ft | 172 kts | 288° |
| 2026-05-06 18:46 | 47.13339 | 8.99357 | 13994 ft | 173 kts | 288° |
| 2026-05-06 18:46 | 47.13795 | 8.97721 | 13993 ft | 173 kts | 288° |
| 2026-05-06 18:46 | 47.14245 | 8.96093 | 13990 ft | 171 kts | 287° |
| 2026-05-06 18:47 | 47.14687 | 8.94472 | 13986 ft | 171 kts | 287° |
| 2026-05-06 18:47 | 47.15116 | 8.92854 | 13985 ft | 172 kts | 287° |
| 2026-05-06 18:47 | 47.15707 | 8.91330 | 13962 ft | 178 kts | 313° |
| 2026-05-06 18:47 | 47.16839 | 8.90576 | 13969 ft | 183 kts | 347° |
| 2026-05-06 18:48 | 47.18096 | 8.90420 | 13978 ft | 185 kts | 351° |
| 2026-05-06 18:48 | 47.19386 | 8.90246 | 13972 ft | 186 kts | 350° |
| 2026-05-06 18:48 | 47.20685 | 8.90076 | 13979 ft | 188 kts | 351° |
| 2026-05-06 18:48 | 47.21990 | 8.89924 | 13983 ft | 188 kts | 351° |
| 2026-05-06 18:49 | 47.23295 | 8.89753 | 13987 ft | 188 kts | 350° |
| 2026-05-06 18:49 | 47.24599 | 8.89568 | 13993 ft | 188 kts | 350° |
| 2026-05-06 18:49 | 47.25908 | 8.89386 | 13988 ft | 190 kts | 350° |
| 2026-05-06 18:49 | 47.27227 | 8.89201 | 13989 ft | 191 kts | 350° |
| 2026-05-06 18:50 | 47.28550 | 8.89262 | 13964 ft | 196 kts | 14° |
| 2026-05-06 18:50 | 47.29682 | 8.90368 | 13961 ft | 198 kts | 48° |
| 2026-05-06 18:50 | 47.30514 | 8.92011 | 13759 ft | 208 kts | 54° |
| 2026-05-06 18:50 | 47.31390 | 8.93777 | 13426 ft | 217 kts | 54° |
| 2026-05-06 18:51 | 47.32272 | 8.95556 | 13091 ft | 211 kts | 54° |
| 2026-05-06 18:51 | 47.33122 | 8.97269 | 12730 ft | 204 kts | 54° |
| 2026-05-06 18:51 | 47.33951 | 8.98946 | 12363 ft | 202 kts | 54° |
| 2026-05-06 18:51 | 47.34815 | 9.00688 | 12008 ft | 216 kts | 53° |
| 2026-05-06 18:52 | 47.35711 | 9.02497 | 11572 ft | 227 kts | 54° |
| 2026-05-06 18:52 | 47.36652 | 9.04404 | 11096 ft | 232 kts | 54° |
| 2026-05-06 18:52 | 47.37611 | 9.06346 | 10630 ft | 235 kts | 53° |
| 2026-05-06 18:52 | 47.38578 | 9.08306 | 10169 ft | 237 kts | 53° |
| 2026-05-06 18:53 | 47.39550 | 9.10274 | 9700 ft | 239 kts | 53° |
| 2026-05-06 18:53 | 47.40530 | 9.12266 | 9180 ft | 239 kts | 53° |
| 2026-05-06 18:53 | 47.41507 | 9.14254 | 8667 ft | 239 kts | 53° |
| 2026-05-06 18:53 | 47.42481 | 9.16237 | 8154 ft | 238 kts | 53° |
| 2026-05-06 18:54 | 47.43453 | 9.18215 | 7647 ft | 237 kts | 53° |
| 2026-05-06 18:54 | 47.44427 | 9.20185 | 7145 ft | 238 kts | 53° |
| 2026-05-06 18:54 | 47.45405 | 9.22170 | 6642 ft | 239 kts | 53° |
| 2026-05-06 18:54 | 47.46370 | 9.24134 | 6134 ft | 239 kts | 52° |
| 2026-05-06 18:55 | 47.47347 | 9.26128 | 5606 ft | 239 kts | 52° |
| 2026-05-06 18:55 | 47.48322 | 9.28113 | 5096 ft | 238 kts | 52° |
| 2026-05-06 18:55 | 47.49260 | 9.30029 | 5006 ft | 221 kts | 52° |
| 2026-05-06 18:55 | 47.50141 | 9.31822 | 4987 ft | 211 kts | 52° |
| 2026-05-06 18:56 | 47.50982 | 9.33565 | 4979 ft | 206 kts | 54° |
| 2026-05-06 18:56 | 47.51445 | 9.35508 | 4883 ft | 205 kts | 89° |
| 2026-05-06 18:56 | 47.51053 | 9.37509 | 4556 ft | 203 kts | 120° |
| 2026-05-06 18:56 | 47.50757 | 9.39597 | 4199 ft | 213 kts | 93° |
| 2026-05-06 18:57 | 47.50844 | 9.41665 | 4131 ft | 177 kts | 90° |
| 2026-05-06 18:57 | 47.50737 | 9.43284 | 4014 ft | 147 kts | 105° |
| 2026-05-06 18:57 | 47.50552 | 9.44752 | 3918 ft | 149 kts | 109° |
| 2026-05-06 18:57 | 47.50222 | 9.46263 | 3695 ft | 154 kts | 119° |
| 2026-05-06 18:58 | 47.49808 | 9.47708 | 3338 ft | 147 kts | 117° |
| 2026-05-06 18:58 | 47.49464 | 9.49127 | 2840 ft | 150 kts | 109° |
| 2026-05-06 18:58 | 47.49208 | 9.50451 | 2548 ft | 120 kts | 112° |
| 2026-05-06 18:58 | 47.49005 | 9.51633 | 2313 ft | 114 kts | 99° |
| 2026-05-06 18:59 | 47.48869 | 9.52670 | 1995 ft | 89 kts | 101° |
| 2026-05-06 18:59 | 47.48779 | 9.53669 | 1692 ft | 99 kts | 100° |
| 2026-05-06 18:59 | 47.48674 | 9.54534 | 1419 ft | 77 kts | 101° |
| 2026-05-06 18:59 | 47.48591 | 9.55300 | 1312 ft | 63 kts | 98° |
| 2026-05-06 19:00 | 47.48535 | 9.55817 | 1315 ft | 41 kts | 101° |
| 2026-05-06 19:00 | 47.48503 | 9.56193 | 1308 ft | 34 kts | 101° |
| 2026-05-06 19:00 | 47.48466 | 9.56513 | 1305 ft | 29 kts | 103° |
| 2026-05-06 19:00 | 47.48437 | 9.56787 | 1306 ft | 25 kts | 100° |
| 2026-05-06 19:01 | 47.48405 | 9.57000 | 1310 ft | 15 kts | 99° |
| 2026-05-06 19:01 | 47.48448 | 9.57074 | 1310 ft | 12 kts | 10° |
| 2026-05-06 19:01 | 47.48536 | 9.57085 | 1308 ft | 8 kts | 343° |
| 2026-05-06 19:01 | 47.48564 | 9.56993 | 1308 ft | 13 kts | 275° |
| 2026-05-06 19:02 | 47.48579 | 9.56847 | 1308 ft | 16 kts | 279° |
| 2026-05-06 19:02 | 47.48595 | 9.56676 | 1307 ft | 18 kts | 277° |
| 2026-05-06 19:02 | 47.48613 | 9.56485 | 1308 ft | 19 kts | 278° |
| 2026-05-06 19:02 | 47.48634 | 9.56281 | 1308 ft | 20 kts | 277° |
| 2026-05-06 19:03 | 47.48655 | 9.56078 | 1311 ft | 20 kts | 278° |
| 2026-05-06 19:03 | 47.48676 | 9.55868 | 1309 ft | 21 kts | 278° |
| 2026-05-06 19:03 | 47.48698 | 9.55651 | 1309 ft | 22 kts | 277° |
| 2026-05-06 19:03 | 47.48721 | 9.55428 | 1307 ft | 23 kts | 278° |
| 2026-05-06 19:04 | 47.48723 | 9.55314 | 1308 ft | 8 kts | 188° |
| 2026-05-06 19:04 | 47.48716 | 9.55254 | 1309 ft | 6 kts | 327° |
| 2026-05-06 19:04 | 47.48723 | 9.55253 | 1308 ft | 0 kts | 11° |